Home   Weather   India   Davangere   Past weeks
Flag for India

Past Weather in Davangere, Karnataka, India — Yesterday and Last 2 Weeks

Currently: 77 °F. Passing clouds. (Weather station: Bengaluru International Airport, India). See more current weather

Past Weather in Davangere — Graph

°F

Davangere Temperature Yesterday

Maximum temperature yesterday: 97 °F (at 4:00 pm)
Minimum temperature yesterday: 73 °F (at 6:00 am)
Average temperature yesterday: 84 °F

High & Low Weather Summary for the Past Weeks

 TemperatureHumidityPressure
High99 °F (Apr 6, 1:30 pm)94% (Apr 11, 5:30 am)30.09 "Hg (Apr 11, 5:30 am)
Low68 °F (Apr 6, 5:30 am)12% (Apr 6, 3:00 pm)29.83 "Hg (Apr 6, 4:30 pm)
Average83 °F43%29.98 "Hg
* Reported Apr 3 3:30 am — Apr 18 4:00 am, Davangere. Weather by CustomWeather, © 2024

Note: Actual official high and low records may vary slightly from our data, if they occured in-between our weather recording intervals... More about our weather records

Davangere Weather History for the Previous 24 Hours

Scroll right to see more
 ConditionsComfort  
Time TempWeatherWind HumidityBarometerVisibility
4:00 am
Thu, Apr 18
77 °FPassing clouds.6 mph69%29.92 "Hg4 mi
3:30 am77 °FPassing clouds.6 mph57%29.92 "Hg4 mi
3:00 am79 °FPassing clouds.3 mph48%29.92 "Hg4 mi
2:30 am79 °FPassing clouds.3 mph48%29.95 "Hg4 mi
2:00 am79 °FPassing clouds.2 mph48%29.95 "Hg4 mi
1:30 am81 °FPassing clouds.3 mph45%29.98 "Hg4 mi
1:00 am81 °FPassing clouds.3 mph42%29.98 "Hg4 mi
12:30 am81 °FPassing clouds.2 mph45%29.98 "Hg4 mi
12:00 am81 °FPassing clouds.7 mph42%29.98 "Hg4 mi
11:30 pm
Wed, Apr 17
81 °FPassing clouds.7 mph42%29.98 "Hg4 mi
11:00 pm82 °FPassing clouds.7 mph40%29.98 "Hg4 mi
10:30 pm82 °FPassing clouds.7 mph40%29.98 "Hg4 mi
10:00 pm86 °FPassing clouds.7 mph35%29.98 "Hg4 mi
9:30 pm88 °FPassing clouds.7 mph33%29.98 "Hg4 mi
9:00 pm88 °FPassing clouds.7 mph33%29.98 "Hg4 mi
8:30 pm88 °FPassing clouds.7 mph33%29.95 "Hg4 mi
8:00 pm90 °FPassing clouds.7 mph31%29.95 "Hg4 mi
7:30 pm91 °FPassing clouds.7 mph30%29.95 "Hg4 mi
6:00 pm93 °FScattered clouds.7 mph26%29.92 "Hg5 mi
5:30 pm93 °FScattered clouds.7 mph26%29.89 "Hg5 mi
5:00 pm95 °FScattered clouds.5 mph26%29.89 "Hg5 mi
4:30 pm93 °FScattered clouds.5 mph28%29.89 "Hg5 mi
4:00 pm97 °FScattered clouds.5 mph25%29.89 "Hg5 mi
3:30 pm93 °FScattered clouds.5 mph28%29.92 "Hg5 mi
3:00 pm93 °FPassing clouds.5 mph28%29.92 "Hg5 mi
2:30 pm95 °FScattered clouds.5 mph28%29.92 "Hg5 mi
2:00 pm93 °FScattered clouds.5 mph32%29.92 "Hg5 mi
1:30 pm91 °FPassing clouds.7 mph34%29.95 "Hg4 mi
1:00 pm91 °FPassing clouds.5 mph34%29.95 "Hg4 mi
12:30 pm90 °FPassing clouds.5 mph36%29.98 "Hg4 mi
12:00 pm90 °FPassing clouds.5 mph38%30.01 "Hg4 mi
11:30 am88 °FPassing clouds.7 mph40%30.01 "Hg4 mi
11:00 am86 °FPassing clouds.5 mph46%30.04 "Hg4 mi
10:30 am86 °FPassing clouds.7 mph49%30.04 "Hg4 mi
10:00 am84 °FPassing clouds.7 mph51%30.04 "Hg4 mi
9:30 am84 °FPassing clouds.6 mph55%30.04 "Hg4 mi
9:00 am81 °FPassing clouds.6 mph62%30.04 "Hg4 mi
8:30 am81 °FPassing clouds.6 mph58%30.04 "Hg4 mi
8:00 am79 °FClear.5 mph58%30.01 "Hg4 mi
7:30 am77 °FClear.5 mph57%30.01 "Hg4 mi
7:00 am75 °FHaze.5 mph65%29.98 "Hg3 mi
6:30 am73 °FHaze.5 mph69%29.98 "Hg3 mi
6:00 am73 °FHaze.5 mph69%29.98 "Hg3 mi
5:30 am75 °FHaze.5 mph65%29.95 "Hg3 mi
5:00 am75 °FHaze.5 mph61%29.95 "Hg3 mi
Weather by CustomWeather, © 2024

See weather overview